sensor_id;sensor_type;location;lat;lon;timestamp;P1;durP1;ratioP1;P2;durP2;ratioP2
1344;SDS011;15375;48.540;9.268;2022-10-28T00:01:07;7.90;;;4.67;;
1344;SDS011;15375;48.540;9.268;2022-10-28T00:03:59;10.13;;;4.53;;
1344;SDS011;15375;48.540;9.268;2022-10-28T00:06:30;6.70;;;4.73;;
1344;SDS011;15375;48.540;9.268;2022-10-28T00:08:58;9.97;;;4.80;;
1344;SDS011;15375;48.540;9.268;2022-10-28T00:11:25;8.83;;;4.17;;
1344;SDS011;15375;48.540;9.268;2022-10-28T00:13:53;5.00;;;3.73;;
1344;SDS011;15375;48.540;9.268;2022-10-28T00:16:21;5.23;;;3.60;;
1344;SDS011;15375;48.540;9.268;2022-10-28T00:18:48;8.33;;;4.70;;
1344;SDS011;15375;48.540;9.268;2022-10-28T00:21:19;11.50;;;4.10;;
1344;SDS011;15375;48.540;9.268;2022-10-28T00:23:47;6.50;;;4.30;;
1344;SDS011;15375;48.540;9.268;2022-10-28T00:26:15;8.97;;;4.40;;
1344;SDS011;15375;48.540;9.268;2022-10-28T00:28:44;8.00;;;3.77;;
1344;SDS011;15375;48.540;9.268;2022-10-28T00:31:13;7.63;;;4.50;;
1344;SDS011;15375;48.540;9.268;2022-10-28T00:33:39;10.00;;;3.93;;
1344;SDS011;15375;48.540;9.268;2022-10-28T00:36:06;8.27;;;4.70;;
1344;SDS011;15375;48.540;9.268;2022-10-28T00:38:35;6.10;;;4.33;;
1344;SDS011;15375;48.540;9.268;2022-10-28T00:41:01;6.40;;;4.57;;
1344;SDS011;15375;48.540;9.268;2022-10-28T00:43:33;6.47;;;4.00;;
1344;SDS011;15375;48.540;9.268;2022-10-28T00:46:01;9.17;;;4.27;;
1344;SDS011;15375;48.540;9.268;2022-10-28T00:48:27;8.87;;;4.07;;
1344;SDS011;15375;48.540;9.268;2022-10-28T00:50:53;5.63;;;4.60;;
1344;SDS011;15375;48.540;9.268;2022-10-28T00:53:28;7.13;;;4.40;;
1344;SDS011;15375;48.540;9.268;2022-10-28T00:55:56;4.80;;;3.27;;
1344;SDS011;15375;48.540;9.268;2022-10-28T00:58:25;18.70;;;4.80;;
1344;SDS011;15375;48.540;9.268;2022-10-28T01:00:51;7.30;;;4.80;;
1344;SDS011;15375;48.540;9.268;2022-10-28T01:03:17;5.80;;;4.20;;
1344;SDS011;15375;48.540;9.268;2022-10-28T01:05:43;6.70;;;4.57;;
1344;SDS011;15375;48.540;9.268;2022-10-28T01:08:13;6.83;;;4.23;;
1344;SDS011;15375;48.540;9.268;2022-10-28T01:13:43;8.77;;;5.00;;
1344;SDS011;15375;48.540;9.268;2022-10-28T01:36:56;7.50;;;3.93;;
1344;SDS011;15375;48.540;9.268;2022-10-28T01:39:46;12.57;;;4.77;;
1344;SDS011;15375;48.540;9.268;2022-10-28T01:47:55;10.90;;;4.50;;
1344;SDS011;15375;48.540;9.268;2022-10-28T01:53:05;9.17;;;5.00;;
1344;SDS011;15375;48.540;9.268;2022-10-28T01:55:37;9.00;;;4.30;;
1344;SDS011;15375;48.540;9.268;2022-10-28T01:58:06;5.93;;;4.10;;
1344;SDS011;15375;48.540;9.268;2022-10-28T02:00:34;6.97;;;4.67;;
1344;SDS011;15375;48.540;9.268;2022-10-28T02:03:00;14.97;;;4.27;;
1344;SDS011;15375;48.540;9.268;2022-10-28T02:05:37;6.33;;;4.23;;
1344;SDS011;15375;48.540;9.268;2022-10-28T02:10:46;5.47;;;3.57;;
1344;SDS011;15375;48.540;9.268;2022-10-28T02:13:14;7.63;;;3.83;;
1344;SDS011;15375;48.540;9.268;2022-10-28T02:15:55;5.80;;;4.10;;
1344;SDS011;15375;48.540;9.268;2022-10-28T02:21:13;5.50;;;4.10;;
1344;SDS011;15375;48.540;9.268;2022-10-28T02:24:00;8.30;;;4.00;;
1344;SDS011;15375;48.540;9.268;2022-10-28T02:26:36;9.63;;;4.47;;
1344;SDS011;15375;48.540;9.268;2022-10-28T02:29:16;5.20;;;4.00;;
1344;SDS011;15375;48.540;9.268;2022-10-28T02:32:12;11.13;;;4.33;;
1344;SDS011;15375;48.540;9.268;2022-10-28T02:34:41;8.50;;;4.80;;
1344;SDS011;15375;48.540;9.268;2022-10-28T02:37:12;7.90;;;3.87;;
1344;SDS011;15375;48.540;9.268;2022-10-28T02:39:44;12.37;;;4.40;;
1344;SDS011;15375;48.540;9.268;2022-10-28T02:42:13;12.70;;;5.00;;
1344;SDS011;15375;48.540;9.268;2022-10-28T02:44:43;9.67;;;4.43;;
1344;SDS011;15375;48.540;9.268;2022-10-28T02:47:14;7.70;;;4.37;;
1344;SDS011;15375;48.540;9.268;2022-10-28T02:49:44;12.23;;;5.33;;
1344;SDS011;15375;48.540;9.268;2022-10-28T02:52:13;8.10;;;5.20;;
1344;SDS011;15375;48.540;9.268;2022-10-28T02:54:42;9.83;;;5.10;;
1344;SDS011;15375;48.540;9.268;2022-10-28T02:57:15;3.80;;;3.50;;
1344;SDS011;15375;48.540;9.268;2022-10-28T02:59:50;7.10;;;4.57;;
1344;SDS011;15375;48.540;9.268;2022-10-28T03:02:20;7.23;;;4.17;;
1344;SDS011;15375;48.540;9.268;2022-10-28T03:04:46;8.37;;;4.70;;
1344;SDS011;15375;48.540;9.268;2022-10-28T03:07:11;7.23;;;4.10;;
1344;SDS011;15375;48.540;9.268;2022-10-28T03:09:36;7.33;;;3.73;;
1344;SDS011;15375;48.540;9.268;2022-10-28T03:12:02;14.13;;;4.40;;
1344;SDS011;15375;48.540;9.268;2022-10-28T03:14:27;6.50;;;4.50;;
1344;SDS011;15375;48.540;9.268;2022-10-28T03:16:53;5.37;;;3.93;;
1344;SDS011;15375;48.540;9.268;2022-10-28T03:19:18;10.10;;;4.90;;
1344;SDS011;15375;48.540;9.268;2022-10-28T03:21:43;9.80;;;4.00;;
1344;SDS011;15375;48.540;9.268;2022-10-28T03:24:09;6.93;;;4.77;;
1344;SDS011;15375;48.540;9.268;2022-10-28T03:26:34;7.80;;;5.10;;
1344;SDS011;15375;48.540;9.268;2022-10-28T03:29:00;8.13;;;5.20;;
1344;SDS011;15375;48.540;9.268;2022-10-28T03:31:25;12.67;;;5.43;;
1344;SDS011;15375;48.540;9.268;2022-10-28T03:33:50;10.80;;;5.00;;
1344;SDS011;15375;48.540;9.268;2022-10-28T03:36:16;6.70;;;4.33;;
1344;SDS011;15375;48.540;9.268;2022-10-28T03:38:41;13.23;;;4.90;;
1344;SDS011;15375;48.540;9.268;2022-10-28T03:41:07;11.03;;;4.90;;
1344;SDS011;15375;48.540;9.268;2022-10-28T03:43:32;5.97;;;4.60;;
1344;SDS011;15375;48.540;9.268;2022-10-28T03:45:57;10.23;;;4.50;;
1344;SDS011;15375;48.540;9.268;2022-10-28T03:48:23;8.43;;;4.60;;
1344;SDS011;15375;48.540;9.268;2022-10-28T03:50:51;10.20;;;4.90;;
1344;SDS011;15375;48.540;9.268;2022-10-28T03:53:18;10.63;;;6.07;;
1344;SDS011;15375;48.540;9.268;2022-10-28T03:55:43;6.83;;;4.03;;
1344;SDS011;15375;48.540;9.268;2022-10-28T03:58:14;10.70;;;5.67;;
1344;SDS011;15375;48.540;9.268;2022-10-28T04:00:41;5.63;;;4.73;;
1344;SDS011;15375;48.540;9.268;2022-10-28T04:03:06;11.07;;;4.67;;
1344;SDS011;15375;48.540;9.268;2022-10-28T04:05:32;7.93;;;5.03;;
1344;SDS011;15375;48.540;9.268;2022-10-28T04:07:57;12.67;;;5.50;;
1344;SDS011;15375;48.540;9.268;2022-10-28T04:10:22;5.20;;;4.60;;
1344;SDS011;15375;48.540;9.268;2022-10-28T04:12:48;10.00;;;6.00;;
1344;SDS011;15375;48.540;9.268;2022-10-28T04:15:13;12.80;;;5.30;;
1344;SDS011;15375;48.540;9.268;2022-10-28T04:17:38;10.73;;;5.50;;
1344;SDS011;15375;48.540;9.268;2022-10-28T04:20:04;7.30;;;4.73;;
1344;SDS011;15375;48.540;9.268;2022-10-28T04:22:30;8.00;;;5.00;;
1344;SDS011;15375;48.540;9.268;2022-10-28T04:24:55;8.90;;;4.77;;
1344;SDS011;15375;48.540;9.268;2022-10-28T04:27:20;8.70;;;5.07;;
1344;SDS011;15375;48.540;9.268;2022-10-28T04:29:46;5.20;;;4.53;;
1344;SDS011;15375;48.540;9.268;2022-10-28T04:32:11;10.53;;;5.20;;
1344;SDS011;15375;48.540;9.268;2022-10-28T04:34:37;8.33;;;6.53;;
1344;SDS011;15375;48.540;9.268;2022-10-28T04:37:02;8.60;;;5.37;;
1344;SDS011;15375;48.540;9.268;2022-10-28T04:39:27;14.70;;;6.23;;
1344;SDS011;15375;48.540;9.268;2022-10-28T04:41:53;8.73;;;4.83;;
1344;SDS011;15375;48.540;9.268;2022-10-28T04:44:18;7.13;;;5.37;;
1344;SDS011;15375;48.540;9.268;2022-10-28T04:46:43;7.23;;;4.73;;
1344;SDS011;15375;48.540;9.268;2022-10-28T04:49:09;11.87;;;5.17;;
1344;SDS011;15375;48.540;9.268;2022-10-28T04:51:34;8.47;;;5.80;;
1344;SDS011;15375;48.540;9.268;2022-10-28T04:54:00;10.47;;;5.70;;
1344;SDS011;15375;48.540;9.268;2022-10-28T04:56:25;21.33;;;5.90;;
1344;SDS011;15375;48.540;9.268;2022-10-28T04:58:50;9.00;;;5.67;;
1344;SDS011;15375;48.540;9.268;2022-10-28T05:01:16;8.90;;;6.33;;
1344;SDS011;15375;48.540;9.268;2022-10-28T05:03:41;10.67;;;5.07;;
1344;SDS011;15375;48.540;9.268;2022-10-28T05:06:06;10.93;;;5.90;;
1344;SDS011;15375;48.540;9.268;2022-10-28T05:08:32;11.23;;;5.50;;
1344;SDS011;15375;48.540;9.268;2022-10-28T05:10:57;9.20;;;5.53;;
1344;SDS011;15375;48.540;9.268;2022-10-28T05:13:22;9.60;;;6.03;;
1344;SDS011;15375;48.540;9.268;2022-10-28T05:15:48;6.20;;;4.70;;
1344;SDS011;15375;48.540;9.268;2022-10-28T05:18:14;9.10;;;6.00;;
1344;SDS011;15375;48.540;9.268;2022-10-28T05:20:39;10.07;;;6.60;;
1344;SDS011;15375;48.540;9.268;2022-10-28T05:23:05;8.43;;;5.13;;
1344;SDS011;15375;48.540;9.268;2022-10-28T05:25:30;9.60;;;5.43;;
1344;SDS011;15375;48.540;9.268;2022-10-28T05:27:59;9.63;;;6.33;;
1344;SDS011;15375;48.540;9.268;2022-10-28T05:30:24;9.57;;;5.73;;
1344;SDS011;15375;48.540;9.268;2022-10-28T05:32:50;8.97;;;6.27;;
1344;SDS011;15375;48.540;9.268;2022-10-28T05:35:16;8.70;;;5.33;;
1344;SDS011;15375;48.540;9.268;2022-10-28T05:37:41;9.50;;;5.30;;
1344;SDS011;15375;48.540;9.268;2022-10-28T05:40:07;10.60;;;5.40;;
1344;SDS011;15375;48.540;9.268;2022-10-28T05:42:38;8.50;;;6.50;;
1344;SDS011;15375;48.540;9.268;2022-10-28T05:45:05;9.30;;;5.90;;
1344;SDS011;15375;48.540;9.268;2022-10-28T05:47:30;9.27;;;5.23;;
1344;SDS011;15375;48.540;9.268;2022-10-28T05:49:56;9.03;;;5.67;;
1344;SDS011;15375;48.540;9.268;2022-10-28T05:52:21;7.47;;;5.47;;
1344;SDS011;15375;48.540;9.268;2022-10-28T05:54:47;11.37;;;5.60;;
1344;SDS011;15375;48.540;9.268;2022-10-28T05:57:15;8.30;;;6.27;;
1344;SDS011;15375;48.540;9.268;2022-10-28T05:59:40;6.90;;;6.10;;
1344;SDS011;15375;48.540;9.268;2022-10-28T06:02:08;16.60;;;5.63;;
1344;SDS011;15375;48.540;9.268;2022-10-28T06:04:38;9.90;;;5.70;;
1344;SDS011;15375;48.540;9.268;2022-10-28T06:07:03;12.70;;;6.87;;
1344;SDS011;15375;48.540;9.268;2022-10-28T06:09:28;11.30;;;6.90;;
1344;SDS011;15375;48.540;9.268;2022-10-28T06:11:54;10.27;;;6.20;;
1344;SDS011;15375;48.540;9.268;2022-10-28T06:14:19;10.17;;;6.20;;
1344;SDS011;15375;48.540;9.268;2022-10-28T06:16:44;9.70;;;6.80;;
1344;SDS011;15375;48.540;9.268;2022-10-28T06:19:10;6.77;;;5.87;;
1344;SDS011;15375;48.540;9.268;2022-10-28T06:21:35;11.23;;;6.30;;
1344;SDS011;15375;48.540;9.268;2022-10-28T06:24:00;8.63;;;6.13;;
1344;SDS011;15375;48.540;9.268;2022-10-28T06:26:26;9.40;;;6.20;;
1344;SDS011;15375;48.540;9.268;2022-10-28T06:28:51;8.60;;;6.03;;
1344;SDS011;15375;48.540;9.268;2022-10-28T06:31:17;11.50;;;7.30;;
1344;SDS011;15375;48.540;9.268;2022-10-28T06:33:42;12.40;;;6.47;;
1344;SDS011;15375;48.540;9.268;2022-10-28T06:36:07;10.13;;;6.87;;
1344;SDS011;15375;48.540;9.268;2022-10-28T06:38:33;9.33;;;7.30;;
1344;SDS011;15375;48.540;9.268;2022-10-28T06:40:58;9.53;;;7.07;;
1344;SDS011;15375;48.540;9.268;2022-10-28T06:43:24;8.40;;;7.50;;
1344;SDS011;15375;48.540;9.268;2022-10-28T06:45:49;15.87;;;6.67;;
1344;SDS011;15375;48.540;9.268;2022-10-28T06:48:19;7.87;;;5.80;;
1344;SDS011;15375;48.540;9.268;2022-10-28T06:50:45;7.43;;;5.37;;
1344;SDS011;15375;48.540;9.268;2022-10-28T06:53:10;12.83;;;6.83;;
1344;SDS011;15375;48.540;9.268;2022-10-28T06:55:35;11.40;;;6.40;;
1344;SDS011;15375;48.540;9.268;2022-10-28T06:58:01;8.50;;;7.00;;
1344;SDS011;15375;48.540;9.268;2022-10-28T07:00:28;8.97;;;7.00;;
1344;SDS011;15375;48.540;9.268;2022-10-28T07:02:54;8.10;;;6.83;;
1344;SDS011;15375;48.540;9.268;2022-10-28T07:05:20;12.80;;;7.07;;
1344;SDS011;15375;48.540;9.268;2022-10-28T07:07:47;12.20;;;6.60;;
1344;SDS011;15375;48.540;9.268;2022-10-28T07:10:13;12.93;;;6.47;;
1344;SDS011;15375;48.540;9.268;2022-10-28T07:12:38;14.60;;;6.80;;
1344;SDS011;15375;48.540;9.268;2022-10-28T07:15:04;8.50;;;6.83;;
1344;SDS011;15375;48.540;9.268;2022-10-28T07:17:29;18.90;;;8.20;;
1344;SDS011;15375;48.540;9.268;2022-10-28T07:19:55;8.50;;;5.73;;
1344;SDS011;15375;48.540;9.268;2022-10-28T07:22:20;12.20;;;6.90;;
1344;SDS011;15375;48.540;9.268;2022-10-28T07:24:45;15.83;;;6.37;;
1344;SDS011;15375;48.540;9.268;2022-10-28T07:27:11;16.27;;;7.03;;
1344;SDS011;15375;48.540;9.268;2022-10-28T07:29:36;9.50;;;5.47;;
1344;SDS011;15375;48.540;9.268;2022-10-28T07:32:02;8.57;;;6.23;;
1344;SDS011;15375;48.540;9.268;2022-10-28T07:34:27;11.30;;;5.80;;
1344;SDS011;15375;48.540;9.268;2022-10-28T07:36:53;8.53;;;5.10;;
1344;SDS011;15375;48.540;9.268;2022-10-28T07:39:19;10.37;;;5.40;;
1344;SDS011;15375;48.540;9.268;2022-10-28T07:41:45;13.27;;;5.20;;
1344;SDS011;15375;48.540;9.268;2022-10-28T07:44:10;12.37;;;5.47;;
1344;SDS011;15375;48.540;9.268;2022-10-28T07:46:36;7.30;;;4.17;;
1344;SDS011;15375;48.540;9.268;2022-10-28T07:49:02;7.53;;;4.73;;
1344;SDS011;15375;48.540;9.268;2022-10-28T07:51:30;6.50;;;4.63;;
1344;SDS011;15375;48.540;9.268;2022-10-28T07:53:56;8.43;;;5.50;;
1344;SDS011;15375;48.540;9.268;2022-10-28T07:56:22;12.63;;;4.93;;
1344;SDS011;15375;48.540;9.268;2022-10-28T07:58:48;8.80;;;6.50;;
1344;SDS011;15375;48.540;9.268;2022-10-28T08:01:14;9.97;;;5.40;;
1344;SDS011;15375;48.540;9.268;2022-10-28T08:03:41;14.97;;;6.17;;
1344;SDS011;15375;48.540;9.268;2022-10-28T08:06:08;10.50;;;5.93;;
1344;SDS011;15375;48.540;9.268;2022-10-28T08:08:41;10.40;;;5.67;;
1344;SDS011;15375;48.540;9.268;2022-10-28T08:11:11;8.33;;;5.17;;
1344;SDS011;15375;48.540;9.268;2022-10-28T08:13:39;13.00;;;5.97;;
1344;SDS011;15375;48.540;9.268;2022-10-28T08:16:05;8.53;;;5.43;;
1344;SDS011;15375;48.540;9.268;2022-10-28T08:18:32;9.17;;;6.03;;
1344;SDS011;15375;48.540;9.268;2022-10-28T08:20:58;10.47;;;6.30;;
1344;SDS011;15375;48.540;9.268;2022-10-28T08:23:25;6.03;;;4.90;;
1344;SDS011;15375;48.540;9.268;2022-10-28T08:25:51;6.77;;;4.33;;
1344;SDS011;15375;48.540;9.268;2022-10-28T08:28:16;7.33;;;5.60;;
1344;SDS011;15375;48.540;9.268;2022-10-28T08:30:42;9.50;;;5.90;;
1344;SDS011;15375;48.540;9.268;2022-10-28T08:33:08;11.70;;;6.10;;
1344;SDS011;15375;48.540;9.268;2022-10-28T08:35:34;9.93;;;6.80;;
1344;SDS011;15375;48.540;9.268;2022-10-28T08:38:00;14.53;;;7.23;;
1344;SDS011;15375;48.540;9.268;2022-10-28T08:40:31;12.03;;;6.90;;
1344;SDS011;15375;48.540;9.268;2022-10-28T08:43:00;9.93;;;6.87;;
1344;SDS011;15375;48.540;9.268;2022-10-28T08:45:55;8.53;;;7.20;;
1344;SDS011;15375;48.540;9.268;2022-10-28T08:48:32;12.90;;;5.77;;
1344;SDS011;15375;48.540;9.268;2022-10-28T08:51:05;9.73;;;5.63;;
1344;SDS011;15375;48.540;9.268;2022-10-28T08:53:39;8.70;;;5.83;;
1344;SDS011;15375;48.540;9.268;2022-10-28T08:56:20;7.13;;;4.67;;
1344;SDS011;15375;48.540;9.268;2022-10-28T08:58:52;6.33;;;4.30;;
1344;SDS011;15375;48.540;9.268;2022-10-28T09:01:31;9.10;;;4.60;;
1344;SDS011;15375;48.540;9.268;2022-10-28T09:04:04;10.70;;;4.57;;
1344;SDS011;15375;48.540;9.268;2022-10-28T09:06:39;11.03;;;4.93;;
1344;SDS011;15375;48.540;9.268;2022-10-28T09:09:04;8.33;;;4.13;;
1344;SDS011;15375;48.540;9.268;2022-10-28T09:11:38;5.90;;;4.87;;
1344;SDS011;15375;48.540;9.268;2022-10-28T09:17:15;5.80;;;4.00;;
1344;SDS011;15375;48.540;9.268;2022-10-28T09:19:49;6.33;;;4.20;;
1344;SDS011;15375;48.540;9.268;2022-10-28T09:27:59;7.20;;;3.90;;
1344;SDS011;15375;48.540;9.268;2022-10-28T09:30:56;6.63;;;4.80;;
1344;SDS011;15375;48.540;9.268;2022-10-28T09:36:41;8.77;;;4.73;;
1344;SDS011;15375;48.540;9.268;2022-10-28T09:39:17;10.20;;;4.30;;
1344;SDS011;15375;48.540;9.268;2022-10-28T09:41:46;11.03;;;4.50;;
1344;SDS011;15375;48.540;9.268;2022-10-28T09:44:16;10.87;;;4.27;;
1344;SDS011;15375;48.540;9.268;2022-10-28T09:46:47;7.47;;;4.40;;
1344;SDS011;15375;48.540;9.268;2022-10-28T09:49:19;9.43;;;3.77;;
1344;SDS011;15375;48.540;9.268;2022-10-28T09:52:10;5.90;;;3.40;;
1344;SDS011;15375;48.540;9.268;2022-10-28T09:54:41;6.90;;;3.80;;
1344;SDS011;15375;48.540;9.268;2022-10-28T09:57:10;10.20;;;4.47;;
1344;SDS011;15375;48.540;9.268;2022-10-28T09:59:35;7.33;;;4.17;;
1344;SDS011;15375;48.540;9.268;2022-10-28T10:02:01;16.70;;;4.27;;
1344;SDS011;15375;48.540;9.268;2022-10-28T10:04:28;10.13;;;4.40;;
1344;SDS011;15375;48.540;9.268;2022-10-28T10:06:58;10.67;;;4.57;;
1344;SDS011;15375;48.540;9.268;2022-10-28T10:09:31;10.87;;;3.73;;
1344;SDS011;15375;48.540;9.268;2022-10-28T10:11:59;6.27;;;3.53;;
1344;SDS011;15375;48.540;9.268;2022-10-28T10:14:48;6.43;;;3.73;;
1344;SDS011;15375;48.540;9.268;2022-10-28T10:20:18;10.33;;;3.60;;
1344;SDS011;15375;48.540;9.268;2022-10-28T10:22:46;5.37;;;3.93;;
1344;SDS011;15375;48.540;9.268;2022-10-28T10:27:54;5.83;;;4.07;;
1344;SDS011;15375;48.540;9.268;2022-10-28T10:32:59;8.80;;;4.47;;
1344;SDS011;15375;48.540;9.268;2022-10-28T10:35:27;6.37;;;4.17;;
1344;SDS011;15375;48.540;9.268;2022-10-28T10:37:55;6.83;;;3.50;;
1344;SDS011;15375;48.540;9.268;2022-10-28T10:40:27;8.93;;;3.70;;
1344;SDS011;15375;48.540;9.268;2022-10-28T10:43:17;9.47;;;4.27;;
1344;SDS011;15375;48.540;9.268;2022-10-28T10:46:00;11.53;;;4.67;;
1344;SDS011;15375;48.540;9.268;2022-10-28T10:48:39;10.00;;;4.20;;
1344;SDS011;15375;48.540;9.268;2022-10-28T10:53:33;6.23;;;3.07;;
1344;SDS011;15375;48.540;9.268;2022-10-28T10:56:00;8.07;;;3.50;;
1344;SDS011;15375;48.540;9.268;2022-10-28T10:58:32;9.50;;;3.97;;
1344;SDS011;15375;48.540;9.268;2022-10-28T11:01:00;10.10;;;3.07;;
1344;SDS011;15375;48.540;9.268;2022-10-28T11:03:29;7.03;;;3.60;;
1344;SDS011;15375;48.540;9.268;2022-10-28T11:06:00;6.53;;;4.13;;
1344;SDS011;15375;48.540;9.268;2022-10-28T11:08:38;7.80;;;3.50;;
1344;SDS011;15375;48.540;9.268;2022-10-28T11:11:12;4.80;;;3.57;;
1344;SDS011;15375;48.540;9.268;2022-10-28T11:13:44;7.30;;;3.53;;
1344;SDS011;15375;48.540;9.268;2022-10-28T11:16:18;6.90;;;3.37;;
1344;SDS011;15375;48.540;9.268;2022-10-28T11:18:48;4.93;;;3.30;;
1344;SDS011;15375;48.540;9.268;2022-10-28T11:24:19;4.87;;;3.07;;
1344;SDS011;15375;48.540;9.268;2022-10-28T11:26:59;13.73;;;3.43;;
1344;SDS011;15375;48.540;9.268;2022-10-28T11:29:32;6.30;;;4.47;;
1344;SDS011;15375;48.540;9.268;2022-10-28T11:34:48;7.63;;;3.83;;
1344;SDS011;15375;48.540;9.268;2022-10-28T11:43:33;9.00;;;4.10;;
1344;SDS011;15375;48.540;9.268;2022-10-28T11:46:10;10.03;;;4.27;;
1344;SDS011;15375;48.540;9.268;2022-10-28T11:54:34;6.90;;;3.50;;
1344;SDS011;15375;48.540;9.268;2022-10-28T11:57:23;7.80;;;3.30;;
1344;SDS011;15375;48.540;9.268;2022-10-28T12:00:13;4.93;;;3.60;;
1344;SDS011;15375;48.540;9.268;2022-10-28T12:05:56;6.30;;;4.20;;
1344;SDS011;15375;48.540;9.268;2022-10-28T12:20:06;5.20;;;3.83;;
1344;SDS011;15375;48.540;9.268;2022-10-28T12:22:54;8.33;;;3.73;;
1344;SDS011;15375;48.540;9.268;2022-10-28T12:25:27;6.33;;;3.80;;
1344;SDS011;15375;48.540;9.268;2022-10-28T12:28:05;8.93;;;4.73;;
1344;SDS011;15375;48.540;9.268;2022-10-28T12:30:42;9.73;;;3.40;;
1344;SDS011;15375;48.540;9.268;2022-10-28T12:39:16;6.97;;;3.30;;
1344;SDS011;15375;48.540;9.268;2022-10-28T12:42:00;7.10;;;3.90;;
1344;SDS011;15375;48.540;9.268;2022-10-28T12:44:30;9.10;;;4.03;;
1344;SDS011;15375;48.540;9.268;2022-10-28T12:49:59;7.23;;;3.90;;
1344;SDS011;15375;48.540;9.268;2022-10-28T12:58:08;6.80;;;3.80;;
1344;SDS011;15375;48.540;9.268;2022-10-28T13:00:50;3.90;;;3.47;;
1344;SDS011;15375;48.540;9.268;2022-10-28T13:03:19;9.40;;;3.93;;
1344;SDS011;15375;48.540;9.268;2022-10-28T13:05:46;8.27;;;3.03;;
1344;SDS011;15375;48.540;9.268;2022-10-28T13:11:20;6.83;;;4.40;;
1344;SDS011;15375;48.540;9.268;2022-10-28T13:25:24;10.63;;;3.67;;
1344;SDS011;15375;48.540;9.268;2022-10-28T13:28:11;4.77;;;3.53;;
1344;SDS011;15375;48.540;9.268;2022-10-28T13:30:50;7.53;;;3.23;;
1344;SDS011;15375;48.540;9.268;2022-10-28T13:33:22;9.60;;;3.73;;
1344;SDS011;15375;48.540;9.268;2022-10-28T13:35:49;7.13;;;4.00;;
1344;SDS011;15375;48.540;9.268;2022-10-28T13:38:17;10.73;;;4.50;;
1344;SDS011;15375;48.540;9.268;2022-10-28T13:44:25;9.73;;;4.57;;
1344;SDS011;15375;48.540;9.268;2022-10-28T13:49:25;6.93;;;4.00;;
1344;SDS011;15375;48.540;9.268;2022-10-28T13:52:01;8.33;;;3.60;;
1344;SDS011;15375;48.540;9.268;2022-10-28T14:00:01;4.40;;;3.77;;
1344;SDS011;15375;48.540;9.268;2022-10-28T14:03:04;7.20;;;4.00;;
1344;SDS011;15375;48.540;9.268;2022-10-28T14:08:27;6.93;;;4.00;;
1344;SDS011;15375;48.540;9.268;2022-10-28T14:11:01;10.83;;;4.50;;
1344;SDS011;15375;48.540;9.268;2022-10-28T14:13:36;13.90;;;4.90;;
1344;SDS011;15375;48.540;9.268;2022-10-28T14:16:35;6.73;;;4.70;;
1344;SDS011;15375;48.540;9.268;2022-10-28T14:24:42;7.70;;;4.70;;
1344;SDS011;15375;48.540;9.268;2022-10-28T14:27:18;8.13;;;4.20;;
1344;SDS011;15375;48.540;9.268;2022-10-28T14:29:48;11.17;;;4.67;;
1344;SDS011;15375;48.540;9.268;2022-10-28T14:34:54;8.07;;;4.80;;
1344;SDS011;15375;48.540;9.268;2022-10-28T14:45:51;9.60;;;5.70;;
1344;SDS011;15375;48.540;9.268;2022-10-28T14:51:00;5.20;;;4.30;;
1344;SDS011;15375;48.540;9.268;2022-10-28T14:55:58;12.30;;;5.30;;
1344;SDS011;15375;48.540;9.268;2022-10-28T14:58:30;14.90;;;4.90;;
1344;SDS011;15375;48.540;9.268;2022-10-28T15:04:04;8.10;;;5.30;;
1344;SDS011;15375;48.540;9.268;2022-10-28T15:09:43;8.63;;;5.80;;
1344;SDS011;15375;48.540;9.268;2022-10-28T15:11:53;10.23;;;5.40;;
1344;SDS011;15375;48.540;9.268;2022-10-28T15:14:28;11.27;;;6.47;;
1344;SDS011;15375;48.540;9.268;2022-10-28T15:16:54;14.80;;;7.90;;
1344;SDS011;15375;48.540;9.268;2022-10-28T15:19:21;8.73;;;5.33;;
1344;SDS011;15375;48.540;9.268;2022-10-28T15:22:02;7.20;;;5.07;;
1344;SDS011;15375;48.540;9.268;2022-10-28T15:24:30;8.67;;;6.20;;
1344;SDS011;15375;48.540;9.268;2022-10-28T15:26:56;8.07;;;5.63;;
1344;SDS011;15375;48.540;9.268;2022-10-28T15:29:22;9.70;;;6.20;;
1344;SDS011;15375;48.540;9.268;2022-10-28T15:34:44;21.33;;;6.80;;
1344;SDS011;15375;48.540;9.268;2022-10-28T15:37:14;17.83;;;5.87;;
1344;SDS011;15375;48.540;9.268;2022-10-28T15:39:51;16.90;;;5.63;;
1344;SDS011;15375;48.540;9.268;2022-10-28T15:42:36;17.53;;;5.80;;
1344;SDS011;15375;48.540;9.268;2022-10-28T15:45:11;13.00;;;5.53;;
1344;SDS011;15375;48.540;9.268;2022-10-28T15:47:40;16.67;;;5.90;;
1344;SDS011;15375;48.540;9.268;2022-10-28T15:52:40;9.57;;;6.13;;
1344;SDS011;15375;48.540;9.268;2022-10-28T15:57:47;10.40;;;5.97;;
1344;SDS011;15375;48.540;9.268;2022-10-28T16:02:48;7.97;;;4.67;;
1344;SDS011;15375;48.540;9.268;2022-10-28T16:07:57;8.80;;;5.60;;
1344;SDS011;15375;48.540;9.268;2022-10-28T16:10:24;5.90;;;5.03;;
1344;SDS011;15375;48.540;9.268;2022-10-28T16:12:55;7.00;;;6.03;;
1344;SDS011;15375;48.540;9.268;2022-10-28T16:15:21;10.37;;;5.70;;
1344;SDS011;15375;48.540;9.268;2022-10-28T16:17:47;12.80;;;6.23;;
1344;SDS011;15375;48.540;9.268;2022-10-28T16:20:13;12.10;;;6.47;;
1344;SDS011;15375;48.540;9.268;2022-10-28T16:22:44;10.60;;;5.60;;
1344;SDS011;15375;48.540;9.268;2022-10-28T16:25:11;10.60;;;5.40;;
1344;SDS011;15375;48.540;9.268;2022-10-28T16:27:41;14.07;;;6.37;;
1344;SDS011;15375;48.540;9.268;2022-10-28T16:30:07;12.57;;;6.00;;
1344;SDS011;15375;48.540;9.268;2022-10-28T16:32:33;6.10;;;5.50;;
1344;SDS011;15375;48.540;9.268;2022-10-28T16:35:02;11.70;;;5.50;;
1344;SDS011;15375;48.540;9.268;2022-10-28T16:37:29;13.40;;;6.97;;
1344;SDS011;15375;48.540;9.268;2022-10-28T16:39:57;12.93;;;5.97;;
1344;SDS011;15375;48.540;9.268;2022-10-28T16:42:23;10.07;;;6.37;;
1344;SDS011;15375;48.540;9.268;2022-10-28T16:44:49;13.13;;;6.20;;
1344;SDS011;15375;48.540;9.268;2022-10-28T16:47:15;12.30;;;6.30;;
1344;SDS011;15375;48.540;9.268;2022-10-28T16:49:42;8.57;;;5.90;;
1344;SDS011;15375;48.540;9.268;2022-10-28T16:52:13;9.47;;;5.70;;
1344;SDS011;15375;48.540;9.268;2022-10-28T16:54:40;13.50;;;6.10;;
1344;SDS011;15375;48.540;9.268;2022-10-28T16:57:06;19.40;;;7.43;;
1344;SDS011;15375;48.540;9.268;2022-10-28T16:59:32;9.70;;;5.77;;
1344;SDS011;15375;48.540;9.268;2022-10-28T17:01:57;10.90;;;6.03;;
1344;SDS011;15375;48.540;9.268;2022-10-28T17:04:23;10.40;;;6.07;;
1344;SDS011;15375;48.540;9.268;2022-10-28T17:06:49;10.70;;;5.07;;
1344;SDS011;15375;48.540;9.268;2022-10-28T17:09:14;10.23;;;5.07;;
1344;SDS011;15375;48.540;9.268;2022-10-28T17:11:40;9.23;;;5.40;;
1344;SDS011;15375;48.540;9.268;2022-10-28T17:14:05;12.43;;;5.60;;
1344;SDS011;15375;48.540;9.268;2022-10-28T17:16:30;13.80;;;8.30;;
1344;SDS011;15375;48.540;9.268;2022-10-28T17:18:56;16.57;;;8.60;;
1344;SDS011;15375;48.540;9.268;2022-10-28T17:21:21;9.67;;;6.40;;
1344;SDS011;15375;48.540;9.268;2022-10-28T17:23:46;12.57;;;5.23;;
1344;SDS011;15375;48.540;9.268;2022-10-28T17:26:12;16.07;;;5.50;;
1344;SDS011;15375;48.540;9.268;2022-10-28T17:28:37;12.20;;;4.70;;
1344;SDS011;15375;48.540;9.268;2022-10-28T17:31:03;9.60;;;5.87;;
1344;SDS011;15375;48.540;9.268;2022-10-28T17:33:30;14.57;;;5.37;;
1344;SDS011;15375;48.540;9.268;2022-10-28T17:35:59;13.80;;;5.27;;
1344;SDS011;15375;48.540;9.268;2022-10-28T17:38:26;10.30;;;5.17;;
1344;SDS011;15375;48.540;9.268;2022-10-28T17:40:54;8.83;;;5.30;;
1344;SDS011;15375;48.540;9.268;2022-10-28T17:43:20;9.80;;;4.23;;
1344;SDS011;15375;48.540;9.268;2022-10-28T17:45:46;9.70;;;4.80;;
1344;SDS011;15375;48.540;9.268;2022-10-28T17:48:12;8.53;;;5.90;;
1344;SDS011;15375;48.540;9.268;2022-10-28T17:50:38;5.80;;;4.17;;
1344;SDS011;15375;48.540;9.268;2022-10-28T17:53:03;10.67;;;5.90;;
1344;SDS011;15375;48.540;9.268;2022-10-28T17:55:28;13.13;;;5.40;;
1344;SDS011;15375;48.540;9.268;2022-10-28T17:57:55;11.90;;;5.93;;
1344;SDS011;15375;48.540;9.268;2022-10-28T18:00:21;10.63;;;5.13;;
1344;SDS011;15375;48.540;9.268;2022-10-28T18:02:46;8.73;;;4.70;;
1344;SDS011;15375;48.540;9.268;2022-10-28T18:05:11;15.73;;;5.30;;